createdAt,value
2022-12-24T00:02:13.531Z,7.33
2022-12-24T00:05:01.521Z,6.30
2022-12-24T00:07:48.619Z,7.57
2022-12-24T00:10:35.616Z,7.50
2022-12-24T00:13:22.580Z,7.10
2022-12-24T00:16:10.122Z,7.20
2022-12-24T00:18:57.121Z,7.30
2022-12-24T00:21:44.131Z,6.43
2022-12-24T00:24:31.099Z,7.30
2022-12-24T00:27:18.019Z,6.87
2022-12-24T00:30:05.550Z,7.47
2022-12-24T00:32:52.487Z,7.37
2022-12-24T00:35:40.508Z,6.80
2022-12-24T00:38:27.460Z,7.13
2022-12-24T00:41:24.926Z,7.07
2022-12-24T00:44:12.281Z,7.17
2022-12-24T00:46:59.375Z,7.00
2022-12-24T00:49:46.511Z,7.07
2022-12-24T00:52:33.533Z,6.37
2022-12-24T00:55:20.489Z,8.07
2022-12-24T00:58:07.422Z,7.83
2022-12-24T01:00:54.381Z,7.23
2022-12-24T01:03:41.465Z,7.53
2022-12-24T01:06:28.464Z,8.17
2022-12-24T01:09:15.537Z,8.30
2022-12-24T01:12:02.464Z,8.83
2022-12-24T01:14:49.691Z,8.57
2022-12-24T01:17:37.216Z,8.10
2022-12-24T01:20:26.928Z,8.23
2022-12-24T01:23:13.876Z,8.70
2022-12-24T01:26:03.154Z,8.53
2022-12-24T01:28:50.104Z,8.37
2022-12-24T01:31:37.121Z,9.47
2022-12-24T01:34:24.121Z,8.47
2022-12-24T01:37:11.088Z,9.27
2022-12-24T01:40:17.994Z,9.93
2022-12-24T01:43:23.586Z,8.90
2022-12-24T01:46:27.288Z,9.63
2022-12-24T01:49:16.786Z,10.77
2022-12-24T01:52:08.406Z,11.23
2022-12-24T01:55:00.014Z,11.07
2022-12-24T01:57:52.913Z,10.47
2022-12-24T02:00:40.257Z,11.77
2022-12-24T02:03:27.351Z,10.97
2022-12-24T02:06:16.837Z,11.60
2022-12-24T02:09:03.888Z,11.07
2022-12-24T02:11:50.981Z,11.70
2022-12-24T02:14:38.385Z,11.70
2022-12-24T02:17:33.941Z,12.80
2022-12-24T02:20:49.989Z,13.63
2022-12-24T02:24:13.637Z,13.37
2022-12-24T02:27:20.671Z,12.67
2022-12-24T02:30:10.579Z,13.77
2022-12-24T02:33:20.241Z,12.80
2022-12-24T02:36:32.513Z,14.43
2022-12-24T02:39:28.775Z,14.20
2022-12-24T02:42:20.405Z,13.90
2022-12-24T02:45:20.281Z,14.13
2022-12-24T02:48:08.004Z,12.27
2022-12-24T02:50:56.770Z,13.67
2022-12-24T02:53:43.844Z,13.37
2022-12-24T02:56:59.779Z,12.77
2022-12-24T03:00:04.140Z,13.03
2022-12-24T03:03:16.665Z,12.13
2022-12-24T03:06:38.552Z,13.60
2022-12-24T03:09:43.278Z,12.70
2022-12-24T03:12:41.298Z,12.50
2022-12-24T03:15:29.837Z,12.77
2022-12-24T03:18:20.777Z,13.53
2022-12-24T03:21:16.141Z,12.80
2022-12-24T03:24:03.477Z,12.77
2022-12-24T03:26:51.492Z,13.63
2022-12-24T03:29:40.205Z,13.33
2022-12-24T03:32:32.407Z,12.13
2022-12-24T03:35:19.387Z,13.20
2022-12-24T03:38:06.330Z,11.80
2022-12-24T03:40:53.313Z,12.47
2022-12-24T03:43:40.228Z,11.17
2022-12-24T03:46:27.210Z,11.87
2022-12-24T03:49:14.223Z,12.23
2022-12-24T03:52:01.165Z,12.43
2022-12-24T03:54:48.122Z,10.97
2022-12-24T03:57:35.110Z,11.87
2022-12-24T04:00:22.161Z,10.50
2022-12-24T04:03:09.146Z,11.33
2022-12-24T04:06:04.781Z,10.30
2022-12-24T04:08:51.749Z,11.17
2022-12-24T04:11:38.668Z,10.37
2022-12-24T04:14:25.725Z,10.20
2022-12-24T04:17:12.664Z,10.20
2022-12-24T04:19:59.600Z,10.40
2022-12-24T04:22:46.535Z,9.67
2022-12-24T04:25:33.452Z,9.00
2022-12-24T04:28:20.407Z,9.60
2022-12-24T04:31:11.596Z,9.20
2022-12-24T04:33:58.512Z,8.80
2022-12-24T04:36:45.509Z,9.43
2022-12-24T04:39:32.455Z,8.53
2022-12-24T04:42:19.385Z,10.27
2022-12-24T04:45:06.929Z,8.73
2022-12-24T04:47:53.987Z,8.90
2022-12-24T04:50:40.938Z,8.20
2022-12-24T04:53:27.861Z,8.60
2022-12-24T04:56:17.762Z,9.33
2022-12-24T04:59:04.771Z,8.80
2022-12-24T05:01:51.855Z,8.90
2022-12-24T05:04:38.956Z,9.00
2022-12-24T05:07:25.910Z,8.73
2022-12-24T05:10:12.916Z,9.37
2022-12-24T05:12:59.919Z,8.27
2022-12-24T05:15:46.837Z,8.37
2022-12-24T05:18:33.796Z,7.97
2022-12-24T05:21:22.872Z,7.77
2022-12-24T05:24:30.385Z,8.93
2022-12-24T05:27:17.351Z,8.70
2022-12-24T05:30:04.844Z,8.03
2022-12-24T05:32:51.769Z,8.03
2022-12-24T05:35:38.717Z,8.30
2022-12-24T05:38:25.719Z,7.43
2022-12-24T05:41:12.747Z,7.50
2022-12-24T05:43:59.710Z,8.30
2022-12-24T05:46:46.861Z,7.23
2022-12-24T05:49:34.283Z,7.23
2022-12-24T05:52:21.380Z,8.37
2022-12-24T05:55:09.207Z,6.63
2022-12-24T05:57:56.178Z,7.30
2022-12-24T06:00:43.252Z,6.47
2022-12-24T06:03:31.588Z,6.67
2022-12-24T06:06:24.324Z,7.20
2022-12-24T06:09:11.348Z,7.10
2022-12-24T06:11:58.304Z,6.70
2022-12-24T06:14:45.239Z,8.17
2022-12-24T06:17:32.230Z,7.67
2022-12-24T06:20:19.199Z,7.30
2022-12-24T06:23:06.160Z,7.20
2022-12-24T06:25:56.867Z,6.93
2022-12-24T06:28:44.656Z,7.30
2022-12-24T06:31:31.713Z,7.40
2022-12-24T06:34:18.730Z,6.73
2022-12-24T06:37:05.712Z,7.90
2022-12-24T06:39:52.658Z,7.33
2022-12-24T06:42:39.629Z,7.33
2022-12-24T06:45:26.566Z,6.87
2022-12-24T06:48:14.750Z,8.63
2022-12-24T06:51:03.432Z,6.90
2022-12-24T06:53:53.470Z,7.73
2022-12-24T06:56:40.450Z,7.93
2022-12-24T06:59:27.387Z,7.70
2022-12-24T07:02:14.434Z,7.17
2022-12-24T07:05:01.431Z,6.83
2022-12-24T07:07:48.464Z,7.40
2022-12-24T07:10:35.482Z,7.23
2022-12-24T07:13:22.413Z,7.73
2022-12-24T07:16:09.778Z,7.47
2022-12-24T07:18:56.836Z,7.43
2022-12-24T07:21:43.984Z,7.73
2022-12-24T07:24:30.944Z,7.63
2022-12-24T07:27:17.954Z,7.97
2022-12-24T07:30:06.233Z,7.47
2022-12-24T07:32:53.213Z,7.13
2022-12-24T07:35:40.185Z,7.43
2022-12-24T07:38:27.763Z,6.80
2022-12-24T07:41:15.110Z,8.07
2022-12-24T07:44:02.227Z,8.60
2022-12-24T07:46:49.236Z,8.47
2022-12-24T07:49:36.415Z,6.93
2022-12-24T07:52:23.355Z,6.80
2022-12-24T07:55:10.308Z,7.27
2022-12-24T07:57:57.247Z,6.67
2022-12-24T08:00:44.217Z,6.90
2022-12-24T08:03:31.300Z,6.80
2022-12-24T08:06:18.292Z,6.87
2022-12-24T08:09:05.254Z,6.47
2022-12-24T08:11:52.680Z,6.47
2022-12-24T08:14:39.709Z,7.30
2022-12-24T08:17:31.951Z,7.53
2022-12-24T08:20:19.390Z,6.27
2022-12-24T08:23:07.663Z,6.20
2022-12-24T08:25:54.592Z,6.33
2022-12-24T08:28:41.748Z,7.07
2022-12-24T08:31:28.826Z,6.00
2022-12-24T08:34:15.779Z,6.20
2022-12-24T08:37:02.708Z,6.10
2022-12-24T08:39:49.678Z,6.57
2022-12-24T08:42:36.642Z,6.50
2022-12-24T08:45:23.665Z,6.37
2022-12-24T08:48:10.921Z,6.30
2022-12-24T08:50:57.853Z,27.97
2022-12-24T08:53:45.502Z,8.90
2022-12-24T08:56:34.397Z,7.60
2022-12-24T08:59:21.377Z,7.37
2022-12-24T09:02:09.363Z,7.13
2022-12-24T09:04:56.512Z,7.47
2022-12-24T09:07:43.879Z,7.03
2022-12-24T09:10:30.835Z,6.90
2022-12-24T09:13:17.793Z,7.83
2022-12-24T09:16:05.237Z,11.03
2022-12-24T09:18:52.238Z,7.13
2022-12-24T09:21:39.216Z,6.50
2022-12-24T09:24:26.188Z,6.13
2022-12-24T09:27:13.174Z,6.13
2022-12-24T09:30:00.120Z,6.93
2022-12-24T09:32:47.073Z,6.70
2022-12-24T09:35:34.291Z,6.50
2022-12-24T09:38:22.066Z,6.17
2022-12-24T09:41:41.212Z,6.60
2022-12-24T09:44:46.005Z,6.40
2022-12-24T09:47:41.451Z,7.33
2022-12-24T09:50:56.579Z,6.00
2022-12-24T09:54:15.853Z,5.77
2022-12-24T09:57:12.698Z,5.73
2022-12-24T09:59:59.638Z,5.57
2022-12-24T10:02:47.023Z,5.57
2022-12-24T10:05:57.401Z,6.03
2022-12-24T10:09:06.737Z,6.50
2022-12-24T10:12:10.306Z,7.33
2022-12-24T10:15:16.456Z,6.43
2022-12-24T10:18:12.047Z,5.83
2022-12-24T10:21:17.162Z,6.77
2022-12-24T10:24:13.331Z,7.87
2022-12-24T10:27:14.748Z,9.47
2022-12-24T10:30:16.886Z,7.60
2022-12-24T10:33:18.504Z,5.53
2022-12-24T10:36:12.363Z,5.97
2022-12-24T10:38:59.879Z,6.67
2022-12-24T10:41:50.064Z,6.50
2022-12-24T10:44:36.988Z,6.07
2022-12-24T10:47:24.459Z,6.97
2022-12-24T10:50:11.655Z,6.67
2022-12-24T10:53:14.582Z,6.47
2022-12-24T10:56:05.315Z,6.73
2022-12-24T10:58:54.654Z,6.30
2022-12-24T11:01:47.405Z,7.23
2022-12-24T11:04:47.631Z,7.07
2022-12-24T11:07:34.657Z,6.90
2022-12-24T11:10:24.310Z,6.73
2022-12-24T11:13:41.165Z,7.90
2022-12-24T11:16:35.496Z,7.27
2022-12-24T11:19:32.808Z,7.03
2022-12-24T11:22:33.284Z,7.67
2022-12-24T11:25:28.875Z,7.07
2022-12-24T11:28:25.906Z,7.50
2022-12-24T11:31:21.080Z,7.00
2022-12-24T11:34:25.440Z,6.93
2022-12-24T11:37:15.981Z,7.30
2022-12-24T11:40:03.422Z,6.80
2022-12-24T11:42:53.784Z,8.10
2022-12-24T11:45:49.283Z,7.33
2022-12-24T11:48:36.223Z,8.30
2022-12-24T11:51:25.693Z,7.07
2022-12-24T11:54:15.975Z,6.40
2022-12-24T11:57:03.831Z,7.73
2022-12-24T11:59:52.168Z,7.87
2022-12-24T12:02:42.490Z,7.70
2022-12-24T12:05:33.059Z,7.70
2022-12-24T12:08:21.537Z,8.17
2022-12-24T12:11:14.177Z,7.70
2022-12-24T12:14:03.834Z,8.13
2022-12-24T12:17:06.018Z,8.20
2022-12-24T12:20:04.426Z,8.10
2022-12-24T12:23:12.681Z,8.57
2022-12-24T12:26:08.673Z,8.20
2022-12-24T12:29:26.365Z,8.73
2022-12-24T12:32:22.755Z,8.50
2022-12-24T12:35:27.775Z,8.03
2022-12-24T12:38:25.130Z,9.50
2022-12-24T12:41:24.383Z,8.87
2022-12-24T12:44:14.287Z,9.67
2022-12-24T12:47:24.233Z,9.33
2022-12-24T12:50:40.241Z,9.93
2022-12-24T12:53:54.046Z,10.27
2022-12-24T12:56:46.739Z,11.10
2022-12-24T12:59:54.114Z,10.63
2022-12-24T13:02:50.090Z,11.07
2022-12-24T13:05:51.001Z,11.43
2022-12-24T13:08:40.897Z,11.37
2022-12-24T13:11:30.786Z,11.63
2022-12-24T13:14:39.317Z,11.13
2022-12-24T13:18:17.569Z,10.80
2022-12-24T13:21:04.837Z,11.73
2022-12-24T13:24:13.832Z,11.73
2022-12-24T13:27:06.069Z,10.97
2022-12-24T13:30:09.679Z,11.27
2022-12-24T13:32:57.327Z,12.13
2022-12-24T13:36:22.799Z,12.20
2022-12-24T13:39:19.854Z,14.53
2022-12-24T13:42:06.902Z,13.10
2022-12-24T13:45:29.101Z,13.40
2022-12-24T13:48:16.119Z,13.40
2022-12-24T13:51:19.910Z,13.00
2022-12-24T13:54:13.676Z,13.50
2022-12-24T13:57:01.400Z,13.37
2022-12-24T13:59:56.524Z,12.30
2022-12-24T14:03:14.529Z,14.57
2022-12-24T14:06:11.952Z,12.40
2022-12-24T14:09:18.262Z,14.00
2022-12-24T14:12:05.170Z,13.07
2022-12-24T14:14:52.127Z,13.13
2022-12-24T14:17:40.232Z,14.10
2022-12-24T14:20:27.289Z,13.10
2022-12-24T14:23:30.410Z,12.00
2022-12-24T14:26:21.702Z,12.87
2022-12-24T14:29:24.877Z,13.73
2022-12-24T14:32:17.363Z,21.00
2022-12-24T14:35:19.979Z,16.00
2022-12-24T14:38:13.529Z,14.17
2022-12-24T14:41:24.056Z,12.97
2022-12-24T14:44:35.870Z,14.40
2022-12-24T14:47:42.982Z,13.20
2022-12-24T14:50:57.170Z,13.23
2022-12-24T14:54:21.867Z,13.17
2022-12-24T14:57:11.745Z,14.57
2022-12-24T15:00:02.094Z,13.47
2022-12-24T15:02:52.474Z,14.47
2022-12-24T15:05:39.627Z,17.13
2022-12-24T15:08:48.282Z,16.17
2022-12-24T15:11:36.359Z,16.07
2022-12-24T15:14:25.951Z,16.37
2022-12-24T15:17:15.517Z,15.03
2022-12-24T15:20:04.077Z,15.83
2022-12-24T15:22:54.556Z,15.83
2022-12-24T15:25:41.542Z,14.90
2022-12-24T15:28:28.465Z,15.60
2022-12-24T15:31:21.764Z,15.10
2022-12-24T15:34:38.465Z,15.70
2022-12-24T15:37:29.622Z,16.10
2022-12-24T15:40:25.021Z,15.93
2022-12-24T15:43:12.004Z,22.17
2022-12-24T15:46:00.292Z,27.93
2022-12-24T15:48:48.815Z,27.93
2022-12-24T15:51:40.478Z,22.93
2022-12-24T15:54:27.705Z,18.93
2022-12-24T15:57:22.734Z,19.27
2022-12-24T16:00:24.870Z,20.17
2022-12-24T16:03:23.343Z,19.63
2022-12-24T16:06:11.746Z,17.17
2022-12-24T16:08:58.758Z,17.20
2022-12-24T16:11:45.778Z,16.70
2022-12-24T16:14:33.624Z,16.43
2022-12-24T16:17:24.160Z,16.23
2022-12-24T16:20:19.676Z,16.20
2022-12-24T16:23:15.775Z,16.47
2022-12-24T16:26:02.759Z,17.80
2022-12-24T16:28:50.310Z,17.33
2022-12-24T16:31:46.810Z,18.00
2022-12-24T16:34:33.849Z,18.67
2022-12-24T16:37:20.776Z,20.10
2022-12-24T16:40:19.276Z,20.40
2022-12-24T16:43:28.485Z,26.77
2022-12-24T16:46:15.576Z,21.27
2022-12-24T16:49:02.534Z,20.93
2022-12-24T16:51:49.679Z,20.70
2022-12-24T16:54:36.604Z,17.47
2022-12-24T16:57:24.319Z,20.93
2022-12-24T17:00:20.713Z,15.87
2022-12-24T17:03:08.370Z,22.90
2022-12-24T17:05:55.375Z,25.60
2022-12-24T17:08:42.312Z,19.07
2022-12-24T17:11:29.252Z,17.83
2022-12-24T17:14:20.242Z,19.30
2022-12-24T17:17:10.851Z,21.03
2022-12-24T17:19:58.120Z,17.00
2022-12-24T17:22:45.047Z,18.23
2022-12-24T17:25:31.971Z,18.13
2022-12-24T17:28:18.968Z,18.77
2022-12-24T17:31:13.517Z,16.77
2022-12-24T17:34:00.557Z,15.90
2022-12-24T17:36:47.522Z,13.37
2022-12-24T17:39:34.509Z,13.23
2022-12-24T17:42:21.435Z,13.97
2022-12-24T17:45:08.908Z,12.07
2022-12-24T17:47:55.843Z,15.53
2022-12-24T17:50:42.835Z,19.97
2022-12-24T17:53:29.831Z,24.23
2022-12-24T17:56:17.172Z,17.33
2022-12-24T17:59:04.624Z,14.50
2022-12-24T18:01:51.656Z,11.50
2022-12-24T18:04:38.927Z,11.23
2022-12-24T18:07:25.933Z,11.20
2022-12-24T18:10:12.851Z,11.03
2022-12-24T18:12:59.904Z,10.60
2022-12-24T18:15:46.892Z,11.60
2022-12-24T18:18:33.884Z,11.37
2022-12-24T18:21:23.795Z,11.60
2022-12-24T18:24:13.568Z,10.57
2022-12-24T18:27:02.592Z,11.57
2022-12-24T18:29:50.212Z,10.63
2022-12-24T18:32:37.427Z,11.27
2022-12-24T18:35:26.821Z,9.90
2022-12-24T18:38:13.729Z,11.43
2022-12-24T18:41:31.190Z,12.00
2022-12-24T18:44:24.572Z,11.87
2022-12-24T18:47:12.159Z,10.83
2022-12-24T18:49:59.246Z,11.43
2022-12-24T18:52:46.171Z,10.33
2022-12-24T18:55:37.384Z,10.60
2022-12-24T18:58:24.489Z,10.10
2022-12-24T19:01:20.319Z,10.73
2022-12-24T19:04:07.388Z,9.77
2022-12-24T19:06:54.330Z,10.70
2022-12-24T19:09:41.347Z,10.27
2022-12-24T19:12:28.263Z,9.07
2022-12-24T19:15:15.353Z,9.13
2022-12-24T19:18:02.265Z,9.63
2022-12-24T19:20:49.372Z,8.17
2022-12-24T19:23:36.614Z,9.27
2022-12-24T19:26:23.708Z,8.73
2022-12-24T19:29:10.682Z,8.67
2022-12-24T19:31:57.694Z,8.30
2022-12-24T19:34:44.691Z,7.07
2022-12-24T19:37:31.608Z,7.67
2022-12-24T19:40:18.631Z,8.00
2022-12-24T19:43:05.543Z,8.00
2022-12-24T19:45:57.877Z,7.73
2022-12-24T19:48:53.306Z,8.20
2022-12-24T19:51:41.697Z,8.00
2022-12-24T19:54:28.636Z,7.60
2022-12-24T19:57:17.709Z,6.77
2022-12-24T20:00:06.117Z,7.27
2022-12-24T20:02:53.145Z,7.83
2022-12-24T20:05:42.120Z,8.07
2022-12-24T20:08:29.923Z,6.57
2022-12-24T20:11:19.646Z,7.60
2022-12-24T20:14:07.236Z,7.33
2022-12-24T20:16:56.522Z,6.80
2022-12-24T20:19:43.529Z,7.17
2022-12-24T20:22:30.517Z,6.80
2022-12-24T20:25:17.471Z,7.37
2022-12-24T20:28:05.736Z,7.30
2022-12-24T20:30:53.080Z,6.77
2022-12-24T20:33:41.165Z,7.40
2022-12-24T20:36:30.316Z,7.87
2022-12-24T20:39:17.331Z,7.90
2022-12-24T20:42:04.854Z,7.23
2022-12-24T20:44:53.885Z,7.17
2022-12-24T20:47:41.828Z,6.00
2022-12-24T20:50:29.376Z,7.13
2022-12-24T20:53:16.340Z,7.63
2022-12-24T20:56:03.342Z,7.10
2022-12-24T20:58:50.971Z,7.43
2022-12-24T21:01:38.926Z,8.63
2022-12-24T21:04:26.767Z,6.87
2022-12-24T21:07:14.360Z,7.57
2022-12-24T21:10:02.067Z,7.03
2022-12-24T21:12:51.886Z,7.80
2022-12-24T21:15:40.276Z,9.23
2022-12-24T21:18:27.628Z,7.20
2022-12-24T21:21:14.996Z,7.30
2022-12-24T21:24:02.913Z,9.00
2022-12-24T21:26:50.005Z,9.10
2022-12-24T21:29:37.013Z,8.97
2022-12-24T21:32:25.379Z,8.27
2022-12-24T21:35:12.612Z,7.80
2022-12-24T21:37:59.521Z,6.73
2022-12-24T21:40:46.456Z,6.67
2022-12-24T21:43:34.535Z,7.07
2022-12-24T21:46:24.833Z,6.30
2022-12-24T21:49:30.461Z,5.77
2022-12-24T21:52:17.376Z,6.03
2022-12-24T21:55:06.155Z,5.83
2022-12-24T21:57:53.121Z,6.00
2022-12-24T22:00:40.796Z,6.10
2022-12-24T22:03:27.802Z,5.67
2022-12-24T22:06:35.103Z,6.33
2022-12-24T22:09:40.664Z,5.97
2022-12-24T22:12:33.045Z,5.70
2022-12-24T22:15:20.110Z,5.17
2022-12-24T22:18:07.830Z,5.20
2022-12-24T22:20:54.990Z,5.87
2022-12-24T22:23:42.749Z,5.80
2022-12-24T22:26:29.817Z,6.00
2022-12-24T22:29:16.734Z,6.33
2022-12-24T22:32:03.724Z,7.00
2022-12-24T22:34:50.657Z,7.23
2022-12-24T22:37:37.626Z,7.43
2022-12-24T22:40:24.633Z,6.97
2022-12-24T22:43:11.569Z,7.90
2022-12-24T22:45:58.576Z,8.07
2022-12-24T22:48:45.998Z,7.33
2022-12-24T22:51:32.947Z,8.97
2022-12-24T22:54:19.908Z,8.37
2022-12-24T22:57:06.864Z,8.67
2022-12-24T22:59:53.927Z,8.30
2022-12-24T23:02:41.041Z,9.37
2022-12-24T23:05:28.089Z,7.50
2022-12-24T23:08:15.024Z,8.37
2022-12-24T23:11:08.278Z,6.83
2022-12-24T23:14:13.887Z,8.07
2022-12-24T23:17:02.050Z,7.43
2022-12-24T23:19:48.991Z,8.03
2022-12-24T23:22:36.024Z,7.17
2022-12-24T23:25:23.703Z,7.50
2022-12-24T23:28:10.637Z,8.17
2022-12-24T23:31:01.022Z,7.67
2022-12-24T23:33:48.587Z,8.07
2022-12-24T23:36:35.585Z,6.77
2022-12-24T23:39:22.680Z,6.80
2022-12-24T23:42:09.636Z,7.17
2022-12-24T23:44:56.554Z,7.00
2022-12-24T23:47:43.486Z,8.03
2022-12-24T23:50:30.707Z,7.50
2022-12-24T23:53:18.751Z,7.60
2022-12-24T23:56:07.081Z,7.53
2022-12-24T23:58:54.070Z,7.43
